createdAt,value
2022-09-12T00:01:54.722Z,71.60
2022-09-12T00:04:22.130Z,71.60
2022-09-12T00:06:49.578Z,71.70
2022-09-12T00:09:16.918Z,71.70
2022-09-12T00:11:45.605Z,71.70
2022-09-12T00:14:16.779Z,71.70
2022-09-12T00:16:44.324Z,71.60
2022-09-12T00:19:11.752Z,71.70
2022-09-12T00:21:40.273Z,71.70
2022-09-12T00:24:08.167Z,71.70
2022-09-12T00:26:35.599Z,71.70
2022-09-12T00:29:02.987Z,71.70
2022-09-12T00:31:30.337Z,71.70
2022-09-12T00:34:00.947Z,71.70
2022-09-12T00:36:29.110Z,71.80
2022-09-12T00:38:56.454Z,71.80
2022-09-12T00:41:25.494Z,71.80
2022-09-12T00:43:58.591Z,71.80
2022-09-12T00:46:38.021Z,71.90
2022-09-12T00:49:13.629Z,71.90
2022-09-12T00:51:42.797Z,71.90
2022-09-12T00:54:15.075Z,72.00
2022-09-12T00:56:43.963Z,72.00
2022-09-12T00:59:14.369Z,72.00
2022-09-12T01:01:42.512Z,72.00
2022-09-12T01:04:10.744Z,72.00
2022-09-12T01:06:40.235Z,72.00
2022-09-12T01:09:08.398Z,72.00
2022-09-12T01:11:37.274Z,72.00
2022-09-12T01:14:06.458Z,72.10
2022-09-12T01:16:37.794Z,72.10
2022-09-12T01:19:23.737Z,72.10
2022-09-12T01:22:29.435Z,72.10
2022-09-12T01:25:24.269Z,72.80
2022-09-12T01:27:54.185Z,72.20
2022-09-12T01:30:24.521Z,72.20
2022-09-12T01:33:01.050Z,72.30
2022-09-12T01:35:37.448Z,72.30
2022-09-12T01:38:17.455Z,72.30
2022-09-12T01:40:47.635Z,72.30
2022-09-12T01:43:29.282Z,72.30
2022-09-12T01:46:02.068Z,72.50
2022-09-12T01:48:51.376Z,72.40
2022-09-12T01:51:39.786Z,72.40
2022-09-12T01:54:27.280Z,72.50
2022-09-12T01:56:57.220Z,72.60
2022-09-12T01:59:35.372Z,72.60
2022-09-12T02:02:03.204Z,72.70
2022-09-12T02:04:34.643Z,72.60
2022-09-12T02:07:11.775Z,72.60
2022-09-12T02:09:39.218Z,72.70
2022-09-12T02:12:09.126Z,72.60
2022-09-12T02:14:42.969Z,72.60
2022-09-12T02:17:12.376Z,72.60
2022-09-12T02:19:45.979Z,72.60
2022-09-12T02:22:16.055Z,72.60
2022-09-12T02:24:46.358Z,72.60
2022-09-12T02:27:32.125Z,72.60
2022-09-12T02:29:59.701Z,72.60
2022-09-12T02:32:32.917Z,72.60
2022-09-12T02:35:03.615Z,72.60
2022-09-12T02:37:52.687Z,73.20
2022-09-12T02:40:20.096Z,72.60
2022-09-12T02:42:47.501Z,72.70
2022-09-12T02:45:15.246Z,72.70
2022-09-12T02:47:51.019Z,72.80
2022-09-12T02:50:18.427Z,72.80
2022-09-12T02:52:45.985Z,72.80
2022-09-12T02:55:14.198Z,72.90
2022-09-12T02:57:41.488Z,73.00
2022-09-12T03:00:09.112Z,73.00
2022-09-12T03:02:45.565Z,73.00
2022-09-12T03:05:19.149Z,73.10
2022-09-12T03:08:00.558Z,73.10
2022-09-12T03:10:27.850Z,73.00
2022-09-12T03:13:01.657Z,73.10
2022-09-12T03:15:47.135Z,73.10
2022-09-12T03:18:21.215Z,73.10
2022-09-12T03:21:02.440Z,73.10
2022-09-12T03:23:32.762Z,73.20
2022-09-12T03:26:03.255Z,73.20
2022-09-12T03:28:31.503Z,73.20
2022-09-12T03:30:59.863Z,73.20
2022-09-12T03:33:27.428Z,73.20
2022-09-12T03:35:55.268Z,73.30
2022-09-12T03:38:22.631Z,73.30
2022-09-12T03:40:54.528Z,73.30
2022-09-12T03:43:22.387Z,73.30
2022-09-12T03:45:53.659Z,73.40
2022-09-12T03:48:21.144Z,73.40
2022-09-12T03:50:48.423Z,73.40
2022-09-12T03:53:17.332Z,73.40
2022-09-12T03:55:45.206Z,73.50
2022-09-12T03:58:12.874Z,73.50
2022-09-12T04:00:41.218Z,73.50
2022-09-12T04:03:09.143Z,73.50
2022-09-12T04:05:36.528Z,73.60
2022-09-12T04:08:03.906Z,73.60
2022-09-12T04:10:31.732Z,73.60
2022-09-12T04:12:59.028Z,73.60
2022-09-12T04:15:26.464Z,73.60
2022-09-12T04:17:53.717Z,73.60
2022-09-12T04:20:21.056Z,73.60
2022-09-12T04:22:48.338Z,73.60
2022-09-12T04:25:15.764Z,73.60
2022-09-12T04:27:43.116Z,73.60
2022-09-12T04:30:10.871Z,73.60
2022-09-12T04:32:38.130Z,73.70
2022-09-12T04:35:05.750Z,73.70
2022-09-12T04:37:33.187Z,73.70
2022-09-12T04:40:00.568Z,73.80
2022-09-12T04:42:27.915Z,73.80
2022-09-12T04:44:55.361Z,73.90
2022-09-12T04:47:23.387Z,73.90
2022-09-12T04:49:51.604Z,73.90
2022-09-12T04:52:18.924Z,73.90
2022-09-12T04:54:46.307Z,73.90
2022-09-12T04:57:13.604Z,73.90
2022-09-12T04:59:41.133Z,73.90
2022-09-12T05:02:08.590Z,74.00
2022-09-12T05:04:36.302Z,74.10
2022-09-12T05:07:03.587Z,74.10
2022-09-12T05:09:30.957Z,74.20
2022-09-12T05:12:04.180Z,74.20
2022-09-12T05:14:33.324Z,74.30
2022-09-12T05:17:02.064Z,74.30
2022-09-12T05:19:30.591Z,74.40
2022-09-12T05:21:58.416Z,74.40
2022-09-12T05:24:25.709Z,74.50
2022-09-12T05:26:53.421Z,74.50
2022-09-12T05:29:23.871Z,75.20
2022-09-12T05:31:52.394Z,74.70
2022-09-12T05:34:20.652Z,74.70
2022-09-12T05:36:48.425Z,74.80
2022-09-12T05:39:15.764Z,74.90
2022-09-12T05:41:43.022Z,74.90
2022-09-12T05:44:14.516Z,75.00
2022-09-12T05:46:43.201Z,75.00
2022-09-12T05:49:11.931Z,75.00
2022-09-12T05:51:40.750Z,75.00
2022-09-12T05:54:09.086Z,75.00
2022-09-12T05:56:40.463Z,75.10
2022-09-12T05:59:10.973Z,75.10
2022-09-12T06:01:38.393Z,75.10
2022-09-12T06:04:06.744Z,75.10
2022-09-12T06:06:36.741Z,75.10
2022-09-12T06:09:04.483Z,75.20
2022-09-12T06:11:33.615Z,75.20
2022-09-12T06:14:01.269Z,75.30
2022-09-12T06:16:29.996Z,75.30
2022-09-12T06:18:58.711Z,75.30
2022-09-12T06:21:26.965Z,75.30
2022-09-12T06:23:55.005Z,75.40
2022-09-12T06:26:24.847Z,75.40
2022-09-12T06:28:53.472Z,75.50
2022-09-12T06:31:23.109Z,75.50
2022-09-12T06:33:52.044Z,75.50
2022-09-12T06:36:22.383Z,75.50
2022-09-12T06:38:54.281Z,75.50
2022-09-12T06:41:21.740Z,75.50
2022-09-12T06:43:49.174Z,75.60
2022-09-12T06:46:16.595Z,75.60
2022-09-12T06:48:44.061Z,75.60
2022-09-12T06:51:13.552Z,75.70
2022-09-12T06:53:41.467Z,75.70
2022-09-12T06:56:11.935Z,75.70
2022-09-12T06:58:39.997Z,75.80
2022-09-12T07:01:07.354Z,75.80
2022-09-12T07:03:35.268Z,75.80
2022-09-12T07:06:03.397Z,75.90
2022-09-12T07:08:31.915Z,75.90
2022-09-12T07:11:01.189Z,76.00
2022-09-12T07:13:28.535Z,76.00
2022-09-12T07:15:55.936Z,76.00
2022-09-12T07:18:23.968Z,76.00
2022-09-12T07:20:51.195Z,76.00
2022-09-12T07:23:18.562Z,76.10
2022-09-12T07:25:52.551Z,76.10
2022-09-12T07:28:19.863Z,76.20
2022-09-12T07:30:47.212Z,76.20
2022-09-12T07:33:14.580Z,76.30
2022-09-12T07:35:41.891Z,76.20
2022-09-12T07:38:09.596Z,76.30
2022-09-12T07:40:36.937Z,76.30
2022-09-12T07:43:04.286Z,76.30
2022-09-12T07:45:31.657Z,76.30
2022-09-12T07:47:58.977Z,76.30
2022-09-12T07:50:26.928Z,76.30
2022-09-12T07:52:55.267Z,76.30
2022-09-12T07:55:22.714Z,76.30
2022-09-12T07:57:50.988Z,76.30
2022-09-12T08:00:18.864Z,76.30
2022-09-12T08:02:46.175Z,76.30
2022-09-12T08:05:13.717Z,76.40
2022-09-12T08:07:40.984Z,76.40
2022-09-12T08:10:09.137Z,76.40
2022-09-12T08:12:36.946Z,76.30
2022-09-12T08:15:04.667Z,76.30
2022-09-12T08:17:32.326Z,76.30
2022-09-12T08:19:59.589Z,76.30
2022-09-12T08:22:26.883Z,76.20
2022-09-12T08:24:54.298Z,76.20
2022-09-12T08:27:21.582Z,76.20
2022-09-12T08:29:48.860Z,76.20
2022-09-12T08:32:16.139Z,76.20
2022-09-12T08:34:43.441Z,76.20
2022-09-12T08:37:10.765Z,76.10
2022-09-12T08:39:38.103Z,76.10
2022-09-12T08:42:06.670Z,76.10
2022-09-12T08:44:46.262Z,76.10
2022-09-12T08:47:13.584Z,76.10
2022-09-12T08:49:56.754Z,76.00
2022-09-12T08:52:27.264Z,76.00
2022-09-12T08:54:56.533Z,76.00
2022-09-12T08:57:24.509Z,76.00
2022-09-12T08:59:53.299Z,76.00
2022-09-12T09:02:23.371Z,76.00
2022-09-12T09:04:52.477Z,76.00
2022-09-12T09:07:22.749Z,76.00
2022-09-12T09:09:49.990Z,76.00
2022-09-12T09:12:20.120Z,75.90
2022-09-12T09:15:22.207Z,75.90
2022-09-12T09:17:51.405Z,75.90
2022-09-12T09:20:31.023Z,75.80
2022-09-12T09:23:04.548Z,75.80
2022-09-12T09:25:41.513Z,75.70
2022-09-12T09:28:17.079Z,75.60
2022-09-12T09:30:46.189Z,75.70
2022-09-12T09:33:18.799Z,75.60
2022-09-12T09:35:47.490Z,75.60
2022-09-12T09:38:17.910Z,75.60
2022-09-12T09:41:00.326Z,75.60
2022-09-12T09:43:30.760Z,75.70
2022-09-12T09:46:00.756Z,75.70
2022-09-12T09:48:30.530Z,75.70
2022-09-12T09:51:02.160Z,75.60
2022-09-12T09:53:29.667Z,75.60
2022-09-12T09:55:57.168Z,75.50
2022-09-12T09:58:34.624Z,75.40
2022-09-12T10:01:03.202Z,75.40
2022-09-12T10:03:34.804Z,75.30
2022-09-12T10:06:06.516Z,75.30
2022-09-12T10:08:37.460Z,75.20
2022-09-12T10:11:06.731Z,75.10
2022-09-12T10:13:39.818Z,75.10
2022-09-12T10:16:19.102Z,75.00
2022-09-12T10:18:51.257Z,74.80
2022-09-12T10:21:19.401Z,74.70
2022-09-12T10:23:53.404Z,74.60
2022-09-12T10:26:22.419Z,74.40
2022-09-12T10:28:52.442Z,74.30
2022-09-12T10:31:43.422Z,74.10
2022-09-12T10:34:21.383Z,73.90
2022-09-12T10:36:48.947Z,73.70
2022-09-12T10:39:18.854Z,73.60
2022-09-12T10:41:46.880Z,73.50
2022-09-12T10:44:19.079Z,73.40
2022-09-12T10:46:47.420Z,73.30
2022-09-12T10:49:23.642Z,73.30
2022-09-12T10:51:51.875Z,73.20
2022-09-12T10:54:20.002Z,73.00
2022-09-12T10:56:59.210Z,72.90
2022-09-12T10:59:32.482Z,72.80
2022-09-12T11:01:59.816Z,72.70
2022-09-12T11:04:30.179Z,72.60
2022-09-12T11:07:02.494Z,72.60
2022-09-12T11:09:29.956Z,72.40
2022-09-12T11:12:02.681Z,72.40
2022-09-12T11:14:41.411Z,72.40
2022-09-12T11:17:34.694Z,72.20
2022-09-12T11:20:07.990Z,72.20
2022-09-12T11:22:41.403Z,72.00
2022-09-12T11:25:28.428Z,72.00
2022-09-12T11:28:13.502Z,71.90
2022-09-12T11:31:04.177Z,71.80
2022-09-12T11:33:53.096Z,71.70
2022-09-12T11:36:28.349Z,71.70
2022-09-12T11:38:59.046Z,71.70
2022-09-12T11:41:37.160Z,71.50
2022-09-12T11:44:13.942Z,71.50
2022-09-12T11:46:43.614Z,71.40
2022-09-12T11:49:13.873Z,70.50
2022-09-12T11:51:44.074Z,70.70
2022-09-12T11:54:20.289Z,70.60
2022-09-12T11:56:49.926Z,70.50
2022-09-12T11:59:39.761Z,70.40
2022-09-12T12:02:12.419Z,70.20
2022-09-12T12:04:44.878Z,69.80
2022-09-12T12:07:12.616Z,69.60
2022-09-12T12:09:50.786Z,69.50
2022-09-12T12:12:24.628Z,69.50
2022-09-12T12:14:53.497Z,69.50
2022-09-12T12:17:22.584Z,69.30
2022-09-12T12:20:08.417Z,69.30
2022-09-12T12:22:36.285Z,69.40
2022-09-12T12:25:12.908Z,69.30
2022-09-12T12:27:49.848Z,69.00
2022-09-12T12:30:32.234Z,68.70
2022-09-12T12:33:13.359Z,68.60
2022-09-12T12:35:40.990Z,68.40
2022-09-12T12:38:26.830Z,68.30
2022-09-12T12:40:54.402Z,68.30
2022-09-12T12:43:32.351Z,68.20
2022-09-12T12:46:01.895Z,68.10
2022-09-12T12:48:31.459Z,67.90
2022-09-12T12:51:21.399Z,67.70
2022-09-12T12:53:48.700Z,67.60
2022-09-12T12:56:35.200Z,67.40
2022-09-12T12:59:13.798Z,67.20
2022-09-12T13:01:45.268Z,67.20
2022-09-12T13:04:15.126Z,67.10
2022-09-12T13:06:44.942Z,67.00
2022-09-12T13:09:14.992Z,66.90
2022-09-12T13:11:42.465Z,66.90
2022-09-12T13:14:33.044Z,66.60
2022-09-12T13:17:01.013Z,66.50
2022-09-12T13:19:32.894Z,66.40
2022-09-12T13:22:01.212Z,66.00
2022-09-12T13:24:28.803Z,65.70
2022-09-12T13:26:57.871Z,66.00
2022-09-12T13:29:26.274Z,65.90
2022-09-12T13:31:57.775Z,65.80
2022-09-12T13:34:32.355Z,65.90
2022-09-12T13:37:18.176Z,65.90
2022-09-12T13:39:52.394Z,65.90
2022-09-12T13:42:36.774Z,65.80
2022-09-12T13:45:04.469Z,65.90
2022-09-12T13:47:35.562Z,65.90
2022-09-12T13:50:04.833Z,65.80
2022-09-12T13:52:33.960Z,65.50
2022-09-12T13:55:02.280Z,65.50
2022-09-12T13:57:41.553Z,65.40
2022-09-12T14:00:19.613Z,65.30
2022-09-12T14:02:47.915Z,65.20
2022-09-12T14:05:26.041Z,64.90
2022-09-12T14:07:58.651Z,65.00
2022-09-12T14:10:28.986Z,64.80
2022-09-12T14:12:57.495Z,64.80
2022-09-12T14:15:27.736Z,64.70
2022-09-12T14:17:59.860Z,64.70
2022-09-12T14:20:32.125Z,64.50
2022-09-12T14:23:04.633Z,64.50
2022-09-12T14:25:41.686Z,64.40
2022-09-12T14:28:13.375Z,64.40
2022-09-12T14:30:41.073Z,64.30
2022-09-12T14:33:11.161Z,64.30
2022-09-12T14:35:43.611Z,64.30
2022-09-12T14:38:20.882Z,64.00
2022-09-12T14:40:49.901Z,64.00
2022-09-12T14:43:20.247Z,63.80
2022-09-12T14:45:53.613Z,63.70
2022-09-12T14:48:21.003Z,63.60
2022-09-12T14:50:52.441Z,63.50
2022-09-12T14:53:19.802Z,63.50
2022-09-12T14:55:53.321Z,63.60
2022-09-12T14:58:20.778Z,63.50
2022-09-12T15:01:20.255Z,63.40
2022-09-12T15:03:50.014Z,63.40
2022-09-12T15:06:28.867Z,63.30
2022-09-12T15:08:57.871Z,63.30
2022-09-12T15:11:25.490Z,63.20
2022-09-12T15:13:53.003Z,63.30
2022-09-12T15:16:20.826Z,63.10
2022-09-12T15:18:48.183Z,63.00
2022-09-12T15:21:19.604Z,63.00
2022-09-12T15:23:47.111Z,63.00
2022-09-12T15:26:18.053Z,62.90
2022-09-12T15:28:45.816Z,62.80
2022-09-12T15:31:19.185Z,62.70
2022-09-12T15:33:46.684Z,62.60
2022-09-12T15:36:16.294Z,62.50
2022-09-12T15:38:44.374Z,62.40
2022-09-12T15:41:22.107Z,62.20
2022-09-12T15:43:49.639Z,62.00
2022-09-12T15:46:17.767Z,61.80
2022-09-12T15:48:45.333Z,61.70
2022-09-12T15:51:15.612Z,61.60
2022-09-12T15:53:43.963Z,61.50
2022-09-12T15:56:11.598Z,61.40
2022-09-12T15:58:54.730Z,61.30
2022-09-12T16:01:25.662Z,61.40
2022-09-12T16:03:53.214Z,61.30
2022-09-12T16:06:20.792Z,61.30
2022-09-12T16:08:48.476Z,61.40
2022-09-12T16:11:26.305Z,61.40
2022-09-12T16:13:54.167Z,61.50
2022-09-12T16:16:21.706Z,61.60
2022-09-12T16:18:49.274Z,61.50
2022-09-12T16:21:16.623Z,61.50
2022-09-12T16:23:44.321Z,61.60
2022-09-12T16:26:11.681Z,61.50
2022-09-12T16:28:41.249Z,61.50
2022-09-12T16:31:10.743Z,61.40
2022-09-12T16:33:38.711Z,61.40
2022-09-12T16:36:07.857Z,61.40
2022-09-12T16:38:35.995Z,61.40
2022-09-12T16:41:04.413Z,61.50
2022-09-12T16:43:32.338Z,61.40
2022-09-12T16:46:03.797Z,61.40
2022-09-12T16:48:31.196Z,61.50
2022-09-12T16:51:00.634Z,61.50
2022-09-12T16:53:33.610Z,61.50
2022-09-12T16:56:02.592Z,61.60
2022-09-12T16:58:32.899Z,61.70
2022-09-12T17:01:06.609Z,61.80
2022-09-12T17:03:39.234Z,61.80
2022-09-12T17:06:08.436Z,61.90
2022-09-12T17:08:37.050Z,61.80
2022-09-12T17:11:15.237Z,61.90
2022-09-12T17:14:03.094Z,61.90
2022-09-12T17:16:30.313Z,61.90
2022-09-12T17:18:58.161Z,61.80
2022-09-12T17:21:26.015Z,61.90
2022-09-12T17:23:53.495Z,61.90
2022-09-12T17:26:21.629Z,61.90
2022-09-12T17:28:48.969Z,61.90
2022-09-12T17:31:16.369Z,61.80
2022-09-12T17:33:44.310Z,61.90
2022-09-12T17:36:16.462Z,61.80
2022-09-12T17:38:45.968Z,61.80
2022-09-12T17:41:18.165Z,61.90
2022-09-12T17:43:46.662Z,61.80
2022-09-12T17:46:15.743Z,61.80
2022-09-12T17:48:44.113Z,61.80
2022-09-12T17:51:13.781Z,61.90
2022-09-12T17:53:44.542Z,61.90
2022-09-12T17:56:12.431Z,61.90
2022-09-12T17:58:40.025Z,62.00
2022-09-12T18:01:27.611Z,62.00
2022-09-12T18:03:55.928Z,62.10
2022-09-12T18:06:24.074Z,62.10
2022-09-12T18:08:51.627Z,62.10
2022-09-12T18:11:19.295Z,62.20
2022-09-12T18:13:47.696Z,62.30
2022-09-12T18:16:15.682Z,62.40
2022-09-12T18:18:43.962Z,62.40
2022-09-12T18:21:12.200Z,62.50
2022-09-12T18:23:40.379Z,62.50
2022-09-12T18:26:11.094Z,62.50
2022-09-12T18:28:39.630Z,62.50
2022-09-12T18:31:12.821Z,62.60
2022-09-12T18:33:40.329Z,62.60
2022-09-12T18:36:08.867Z,62.70
2022-09-12T18:38:39.434Z,62.70
2022-09-12T18:41:07.895Z,62.80
2022-09-12T18:43:35.526Z,62.80
2022-09-12T18:46:04.569Z,62.90
2022-09-12T18:48:32.973Z,63.00
2022-09-12T18:51:06.213Z,63.00
2022-09-12T18:53:35.261Z,63.00
2022-09-12T18:59:03.334Z,63.10
2022-09-12T19:01:36.055Z,63.20
2022-09-12T19:04:06.517Z,63.20
2022-09-12T19:06:37.753Z,63.20
2022-09-12T19:09:08.462Z,63.30
2022-09-12T19:11:38.268Z,63.40
2022-09-12T19:14:15.045Z,63.40
2022-09-12T19:16:43.486Z,63.50
2022-09-12T19:19:10.964Z,63.50
2022-09-12T19:21:43.378Z,63.60
2022-09-12T19:24:11.403Z,63.60
2022-09-12T19:26:39.395Z,63.60
2022-09-12T19:29:07.058Z,63.70
2022-09-12T19:31:38.187Z,63.70
2022-09-12T19:34:06.923Z,63.70
2022-09-12T19:36:50.672Z,63.80
2022-09-12T19:39:22.018Z,63.80
2022-09-12T19:41:50.027Z,63.90
2022-09-12T19:44:20.929Z,63.90
2022-09-12T19:46:58.995Z,64.00
2022-09-12T19:49:26.731Z,64.00
2022-09-12T19:51:54.346Z,64.00
2022-09-12T19:54:21.899Z,64.10
2022-09-12T19:56:49.297Z,64.10
2022-09-12T19:59:16.748Z,64.10
2022-09-12T20:01:44.193Z,64.20
2022-09-12T20:04:11.585Z,64.20
2022-09-12T20:06:38.995Z,64.30
2022-09-12T20:09:06.259Z,64.30
2022-09-12T20:11:34.447Z,64.30
2022-09-12T20:14:01.812Z,64.40
2022-09-12T20:16:30.105Z,64.50
2022-09-12T20:18:58.919Z,64.60
2022-09-12T20:21:32.056Z,64.70
2022-09-12T20:24:00.591Z,64.70
2022-09-12T20:26:28.042Z,64.80
2022-09-12T20:28:55.317Z,64.90
2022-09-12T20:31:22.698Z,65.50
2022-09-12T20:33:52.073Z,65.10
2022-09-12T20:36:20.444Z,65.20
2022-09-12T20:38:58.692Z,65.10
2022-09-12T20:41:27.823Z,65.20
2022-09-12T20:43:56.036Z,65.40
2022-09-12T20:46:24.350Z,65.50
2022-09-12T20:48:52.123Z,65.50
2022-09-12T20:51:20.054Z,65.50
2022-09-12T20:53:47.666Z,65.50
2022-09-12T20:56:15.326Z,65.50
2022-09-12T20:58:44.518Z,65.60
2022-09-12T21:01:12.869Z,65.60
2022-09-12T21:03:44.912Z,65.60
2022-09-12T21:06:18.703Z,65.70
2022-09-12T21:08:47.180Z,65.70
2022-09-12T21:11:15.372Z,65.80
2022-09-12T21:13:42.759Z,65.80
2022-09-12T21:16:14.894Z,65.90
2022-09-12T21:18:43.057Z,65.90
2022-09-12T21:21:11.700Z,65.90
2022-09-12T21:23:39.496Z,66.00
2022-09-12T21:26:07.793Z,66.00
2022-09-12T21:28:35.407Z,66.10
2022-09-12T21:31:02.731Z,66.10
2022-09-12T21:33:30.121Z,66.20
2022-09-12T21:36:01.763Z,66.20
2022-09-12T21:38:30.712Z,66.30
2022-09-12T21:41:08.306Z,66.30
2022-09-12T21:43:36.121Z,66.30
2022-09-12T21:46:04.129Z,66.30
2022-09-12T21:48:31.758Z,66.40
2022-09-12T21:50:59.133Z,66.50
2022-09-12T21:53:26.635Z,66.60
2022-09-12T21:55:54.063Z,66.60
2022-09-12T21:58:21.386Z,66.60
2022-09-12T22:00:48.731Z,66.60
2022-09-12T22:03:17.089Z,66.70
2022-09-12T22:05:44.625Z,66.70
2022-09-12T22:08:12.045Z,66.80
2022-09-12T22:10:40.373Z,66.80
2022-09-12T22:13:08.056Z,66.90
2022-09-12T22:15:40.560Z,66.90
2022-09-12T22:18:08.339Z,67.00
2022-09-12T22:20:35.750Z,67.00
2022-09-12T22:23:24.763Z,67.00
2022-09-12T22:25:55.594Z,67.10
2022-09-12T22:28:23.015Z,67.20
2022-09-12T22:30:50.973Z,67.30
2022-09-12T22:33:18.228Z,67.30
2022-09-12T22:35:45.576Z,67.30
2022-09-12T22:38:13.393Z,67.40
2022-09-12T22:40:40.750Z,67.50
2022-09-12T22:43:08.025Z,67.50
2022-09-12T22:45:35.464Z,67.60
2022-09-12T22:48:06.153Z,67.60
2022-09-12T22:50:35.979Z,67.60
2022-09-12T22:53:03.275Z,67.70
2022-09-12T22:55:30.774Z,67.70
2022-09-12T22:57:58.103Z,67.80
2022-09-12T23:00:28.003Z,67.80
2022-09-12T23:02:55.737Z,67.90
2022-09-12T23:05:23.172Z,67.90
2022-09-12T23:07:51.235Z,68.00
2022-09-12T23:10:18.496Z,68.00
2022-09-12T23:12:45.856Z,68.10
2022-09-12T23:15:13.565Z,68.20
2022-09-12T23:17:40.937Z,68.40
2022-09-12T23:20:08.405Z,68.50
2022-09-12T23:22:36.112Z,68.60
2022-09-12T23:25:03.893Z,69.00
2022-09-12T23:27:31.189Z,69.00
2022-09-12T23:29:58.458Z,69.00
2022-09-12T23:32:25.837Z,69.30
2022-09-12T23:34:53.258Z,69.60
2022-09-12T23:37:21.915Z,69.60
2022-09-12T23:39:49.947Z,70.20
2022-09-12T23:42:17.462Z,70.20
2022-09-12T23:44:44.865Z,70.20
2022-09-12T23:47:12.288Z,70.00
2022-09-12T23:49:39.638Z,70.10
2022-09-12T23:52:06.923Z,70.00
2022-09-12T23:54:34.259Z,70.10
2022-09-12T23:57:01.563Z,70.10
2022-09-12T23:59:31.258Z,70.10
